Time;durP1;ratioP1;P1;durP2;ratioP2;P2;SDS_P1;SDS_P2;PMS_P1;PMS_P2;Temp;Humidity;BMP_temperature;BMP_pressure;BME280_temperature;BME280_humidity;BME280_pressure;Samples;Min_cycle;Max_cycle;Signal;HPM_P1;HPM_P2
2022/08/07 00:01:40;;;;;;;11.20;6.95;;;;;;;21.51;73.22;93270.94;5091782;28;20607;-48
2022/08/07 00:04:06;;;;;;;7.53;5.80;;;;;;;21.38;71.63;93271.66;5091930;28;20043;-51
2022/08/07 00:06:32;;;;;;;6.28;5.53;;;;;;;21.45;70.27;93279.78;5092162;28;20028;-49
2022/08/07 00:08:57;;;;;;;13.25;6.43;;;;;;;21.47;70.09;93279.16;5092299;28;20016;-48
2022/08/07 00:11:23;;;;;;;12.45;7.15;;;;;;;21.23;72.99;93275.09;5092235;28;20028;-48
2022/08/07 00:13:48;;;;;;;8.48;7.65;;;;;;;21.30;72.97;93277.63;5091816;28;20077;-51
2022/08/07 00:16:14;;;;;;;10.75;6.93;;;;;;;21.23;73.78;93266.69;5092167;28;20048;-56
2022/08/07 00:18:40;;;;;;;9.63;6.72;;;;;;;21.33;73.64;93267.91;5092133;28;20031;-56
2022/08/07 00:21:07;;;;;;;8.95;6.93;;;;;;;21.14;74.60;93277.50;5092111;28;20115;-59
2022/08/07 00:23:34;;;;;;;7.43;6.63;;;;;;;21.19;74.60;93274.91;5091785;28;20111;-60
2022/08/07 00:26:00;;;;;;;9.18;7.45;;;;;;;21.25;74.19;93266.78;5092063;28;20097;-59
2022/08/07 00:28:27;;;;;;;9.18;6.53;;;;;;;21.20;74.63;93268.69;5092005;28;20123;-59
2022/08/07 00:30:53;;;;;;;7.05;6.35;;;;;;;21.19;74.72;93278.44;5091522;28;20024;-60
2022/08/07 00:33:18;;;;;;;8.65;6.00;;;;;;;21.25;74.54;93278.00;5091423;28;20118;-59
2022/08/07 00:35:44;;;;;;;7.90;6.25;;;;;;;21.19;74.68;93269.28;5090383;28;20059;-59
2022/08/07 00:38:09;;;;;;;9.35;6.93;;;;;;;21.22;74.36;93271.59;5091269;28;20024;-52
2022/08/07 00:40:36;;;;;;;7.00;6.25;;;;;;;21.28;73.92;93279.59;5091397;28;20027;-51
2022/08/07 00:43:02;;;;;;;8.02;6.82;;;;;;;21.29;73.75;93273.34;5091433;28;20047;-57
2022/08/07 00:45:27;;;;;;;10.70;7.40;;;;;;;21.30;73.94;93271.25;5091252;28;20390;-55
2022/08/07 00:47:53;;;;;;;8.82;7.00;;;;;;;21.25;73.93;93272.41;5091423;28;20112;-55
2022/08/07 00:50:18;;;;;;;9.38;6.72;;;;;;;21.07;74.62;93272.91;5076572;28;20025;-58
2022/08/07 00:52:44;;;;;;;8.88;6.95;;;;;;;21.12;74.41;93273.84;5073724;28;20024;-56
2022/08/07 00:55:09;;;;;;;8.75;7.00;;;;;;;21.21;73.95;93272.19;5091366;28;20032;-55
2022/08/07 00:57:35;;;;;;;8.38;6.78;;;;;;;21.17;73.83;93266.38;5090612;28;20515;-54
2022/08/07 01:00:04;;;;;;;12.25;7.03;;;;;;;21.22;74.10;93273.66;5090941;28;20492;-54
2022/08/07 01:02:29;;;;;;;11.95;7.82;;;;;;;21.10;74.41;93280.09;5090835;28;20073;-54
2022/08/07 01:04:56;;;;;;;8.52;7.15;;;;;;;21.02;74.63;93279.66;5090933;28;20028;-57
2022/08/07 01:07:22;;;;;;;8.38;7.50;;;;;;;20.89;74.95;93277.56;5091142;28;20470;-56
2022/08/07 01:09:47;;;;;;;9.05;7.03;;;;;;;20.88;75.30;93281.69;5090997;28;20085;-56
2022/08/07 01:12:14;;;;;;;10.98;7.25;;;;;;;20.97;75.58;93277.25;5090778;28;20488;-54
2022/08/07 01:14:39;;;;;;;10.82;7.53;;;;;;;21.08;74.62;93279.25;5089488;28;20421;-55
2022/08/07 01:17:05;;;;;;;8.38;6.90;;;;;;;21.12;74.53;93279.47;5089434;28;20024;-55
2022/08/07 01:19:31;;;;;;;9.43;7.53;;;;;;;21.07;74.50;93277.81;5090790;28;20027;-56
2022/08/07 01:21:56;;;;;;;10.57;7.38;;;;;;;21.12;74.58;93285.06;5089265;28;20027;-57
2022/08/07 01:24:22;;;;;;;9.45;7.00;;;;;;;21.02;75.09;93292.94;5089665;28;20119;-57
2022/08/07 01:26:49;;;;;;;12.93;7.03;;;;;;;21.07;75.43;93286.94;5089257;28;20028;-58
2022/08/07 01:29:15;;;;;;;7.93;6.68;;;;;;;20.82;75.50;93256.13;5090490;28;20034;-51
2022/08/07 01:31:40;;;;;;;8.55;7.22;;;;;;;21.04;75.73;93304.31;5087804;28;20044;-52
2022/08/07 01:34:06;;;;;;;7.47;6.18;;;;;;;21.08;75.89;93305.25;5086927;28;20477;-50
2022/08/07 01:36:31;;;;;;;7.22;6.53;;;;;;;21.16;75.25;93307.03;5090016;28;20398;-50
2022/08/07 01:38:57;;;;;;;7.65;6.47;;;;;;;20.86;75.44;93298.44;5088404;28;20076;-51
2022/08/07 01:41:24;;;;;;;7.75;6.95;;;;;;;20.97;75.16;93322.88;5086698;28;20027;-49
2022/08/07 01:43:50;;;;;;;7.30;6.20;;;;;;;21.02;75.04;93323.81;5090228;28;20024;-49
2022/08/07 01:46:16;;;;;;;10.65;6.57;;;;;;;21.01;75.73;93317.47;5090236;28;20103;-49
2022/08/07 01:48:43;;;;;;;6.95;6.25;;;;;;;20.95;74.85;93293.97;5090618;28;20016;-52
2022/08/07 01:51:12;;;;;;;7.30;6.28;;;;;;;20.98;75.33;93312.38;5090430;28;20032;-49
2022/08/07 01:53:39;;;;;;;7.55;6.78;;;;;;;20.90;75.98;93309.88;5088994;28;20111;-48
2022/08/07 01:56:10;;;;;;;7.78;7.05;;;;;;;20.83;76.69;93312.97;5089627;28;20070;-50
2022/08/07 01:58:40;;;;;;;10.07;6.63;;;;;;;20.90;75.46;93307.06;5088814;28;20464;-49
2022/08/07 02:01:13;;;;;;;8.48;6.88;;;;;;;20.80;75.83;93314.94;5090178;28;20032;-49
2022/08/07 02:03:44;;;;;;;7.97;7.10;;;;;;;20.69;76.82;93310.13;5089291;28;20074;-51
2022/08/07 02:06:14;;;;;;;7.57;6.57;;;;;;;20.52;77.20;93304.25;5093171;28;20031;-52
2022/08/07 02:08:41;;;;;;;7.68;6.88;;;;;;;20.46;77.86;93307.47;5093317;28;20020;-49
2022/08/07 02:11:08;;;;;;;7.68;6.38;;;;;;;20.49;77.27;93309.00;5094258;28;20035;-51
2022/08/07 02:13:34;;;;;;;8.00;7.07;;;;;;;20.49;77.09;93306.22;5094451;28;20028;-51
2022/08/07 02:16:01;;;;;;;8.77;6.43;;;;;;;20.51;77.01;93303.50;5093139;28;20031;-46
2022/08/07 02:18:29;;;;;;;9.18;7.72;;;;;;;20.50;76.67;93304.13;5094307;28;20507;-48
2022/08/07 02:20:55;;;;;;;9.02;7.05;;;;;;;20.47;76.78;93300.50;5094046;28;20020;-48
2022/08/07 02:23:21;;;;;;;8.10;6.65;;;;;;;20.45;77.06;93297.56;5092796;28;20035;-51
2022/08/07 02:25:47;;;;;;;7.05;6.35;;;;;;;20.47;77.33;93299.75;5094105;28;20489;-47
2022/08/07 02:28:14;;;;;;;7.82;6.55;;;;;;;20.56;76.14;93293.97;5093036;28;20031;-50
2022/08/07 02:30:40;;;;;;;7.13;6.28;;;;;;;20.47;75.91;93289.28;5093476;28;20020;-49
2022/08/07 02:33:06;;;;;;;8.68;6.70;;;;;;;20.55;75.03;93281.31;5093233;28;20056;-47
2022/08/07 02:35:33;;;;;;;7.60;6.78;;;;;;;20.54;74.66;93284.72;5092427;28;20051;-49
2022/08/07 02:38:00;;;;;;;8.38;6.90;;;;;;;20.39;75.34;93267.13;5092806;28;20519;-49
2022/08/07 02:40:26;;;;;;;8.13;6.75;;;;;;;20.55;74.93;93277.78;5093181;28;20077;-48
2022/08/07 02:42:53;;;;;;;8.68;7.22;;;;;;;20.43;75.76;93275.03;5092853;28;20035;-50
2022/08/07 02:45:19;;;;;;;8.00;6.43;;;;;;;20.36;75.25;93259.94;5092721;28;20036;-52
2022/08/07 02:47:44;;;;;;;7.57;6.05;;;;;;;20.43;75.22;93280.66;5092211;28;20642;-50
2022/08/07 02:50:10;;;;;;;10.50;6.85;;;;;;;20.38;75.61;93276.16;5093748;28;20512;-51
2022/08/07 02:52:39;;;;;;;7.93;7.13;;;;;;;20.32;75.94;93275.81;5093186;28;20092;-50
2022/08/07 02:55:12;;;;;;;9.18;7.03;;;;;;;20.23;76.34;93287.94;5093599;28;20030;-50
2022/08/07 02:57:39;;;;;;;8.43;7.00;;;;;;;20.24;75.99;93289.41;5092324;28;20062;-49
2022/08/07 03:00:06;;;;;;;9.00;7.05;;;;;;;20.15;76.36;93282.59;5089221;28;20049;-50
2022/08/07 03:02:33;;;;;;;8.27;7.43;;;;;;;20.02;77.45;93286.06;5093269;28;20030;-49
2022/08/07 03:04:59;;;;;;;8.13;7.30;;;;;;;20.05;77.25;93286.91;5091664;28;20538;-50
2022/08/07 03:07:25;;;;;;;7.88;7.05;;;;;;;20.00;76.90;93288.75;5091551;28;20036;-49
2022/08/07 03:09:51;;;;;;;8.45;6.85;;;;;;;20.00;76.62;93288.75;5093077;28;20032;-48
2022/08/07 03:12:17;;;;;;;7.28;6.57;;;;;;;20.01;76.55;93292.97;5093286;28;20070;-50
2022/08/07 03:14:43;;;;;;;9.57;7.47;;;;;;;20.04;76.21;93294.56;5092044;28;20062;-48
2022/08/07 03:17:09;;;;;;;7.28;6.57;;;;;;;19.97;76.03;93283.63;5091056;28;20024;-48
2022/08/07 03:19:35;;;;;;;8.10;6.47;;;;;;;19.96;76.38;93290.59;5091614;28;20028;-54
2022/08/07 03:22:03;;;;;;;11.27;6.95;;;;;;;20.06;75.31;93288.34;5091303;28;20085;-54
2022/08/07 03:24:29;;;;;;;8.60;6.95;;;;;;;20.08;75.54;93289.19;5085591;28;20420;-51
2022/08/07 03:26:58;;;;;;;10.60;7.45;;;;;;;19.95;76.11;93287.03;5086547;28;20187;-54
2022/08/07 03:29:23;;;;;;;;;;;;;;;19.93;76.13;93294.59;5093206;28;20020;-53
2022/08/07 03:31:50;;;;;;;9.18;6.85;;;;;;;19.89;75.80;93288.78;5091692;28;19938;-55
2022/08/07 03:34:17;;;;;;;8.57;6.75;;;;;;;19.80;76.58;93289.66;5125441;27;20055;-58
2022/08/07 03:36:42;;;;;;;9.40;7.28;;;;;;;19.84;76.16;93287.09;5092661;28;20028;-57
2022/08/07 03:39:11;;;;;;;9.95;7.88;;;;;;;19.77;76.34;93293.69;5092152;28;20035;-58
2022/08/07 03:41:37;;;;;;;9.90;7.75;;;;;;;19.73;76.11;93282.97;5090510;28;20432;-58
2022/08/07 03:44:03;;;;;;;10.77;7.35;;;;;;;19.67;76.33;93288.22;5090173;28;20089;-58
2022/08/07 03:46:29;;;;;;;10.88;8.23;;;;;;;19.63;76.50;93290.78;5091123;28;20024;-59
2022/08/07 03:48:55;;;;;;;9.45;7.68;;;;;;;19.60;76.58;93284.34;5088631;28;20028;-54
2022/08/07 03:51:21;;;;;;;10.07;7.40;;;;;;;19.70;76.03;93287.00;5082716;28;20584;-56
2022/08/07 03:53:47;;;;;;;9.15;7.70;;;;;;;19.65;75.93;93288.13;5091163;28;20032;-54
2022/08/07 03:56:15;;;;;;;9.52;7.72;;;;;;;19.59;76.21;93290.56;5091706;28;20417;-57
2022/08/07 03:58:41;;;;;;;11.02;7.65;;;;;;;19.66;75.94;93293.09;5090771;28;20737;-52
2022/08/07 04:01:09;;;;;;;12.63;9.85;;;;;;;19.67;76.04;93283.34;5090759;28;20104;-54
2022/08/07 04:03:34;;;;;;;16.03;9.07;;;;;;;19.77;75.83;93290.88;5092305;28;20054;-50
2022/08/07 04:06:00;;;;;;;10.70;8.52;;;;;;;19.55;76.11;93302.28;5092137;28;20528;-50
2022/08/07 04:08:26;;;;;;;8.43;7.25;;;;;;;19.57;75.88;93299.59;5090815;28;20485;-58
2022/08/07 04:10:52;;;;;;;12.40;8.75;;;;;;;19.56;76.17;93309.31;5092212;28;20096;-58
2022/08/07 04:13:18;;;;;;;11.02;8.73;;;;;;;19.57;76.18;93302.38;5090542;28;20059;-57
2022/08/07 04:15:43;;;;;;;12.98;9.70;;;;;;;19.58;76.45;93300.28;5091884;28;20070;-54
2022/08/07 04:18:12;;;;;;;12.65;8.48;;;;;;;19.55;76.86;93305.06;5090459;28;20024;-58
2022/08/07 04:20:38;;;;;;;;;;;;;;;19.50;77.15;93314.56;5092398;28;20028;-58
2022/08/07 04:23:03;;;;;;;8.68;7.22;;;;;;;19.45;77.39;93312.13;5092184;28;19938;-57
2022/08/07 04:25:29;;;;;;;10.38;7.72;;;;;;;19.45;77.64;93318.47;5091592;28;20503;-57
2022/08/07 04:27:54;;;;;;;7.82;7.03;;;;;;;19.48;77.79;93310.91;5090749;28;20035;-57
2022/08/07 04:30:20;;;;;;;8.55;6.80;;;;;;;19.61;77.19;93322.22;5081401;28;20485;-56
2022/08/07 04:32:45;;;;;;;8.93;7.45;;;;;;;19.58;77.58;93317.84;5071376;28;20025;-56
2022/08/07 04:35:11;;;;;;;8.73;7.00;;;;;;;19.62;77.59;93322.97;5070288;28;20089;-58
2022/08/07 04:37:37;;;;;;;10.98;7.55;;;;;;;19.62;77.99;93328.56;5070920;28;20048;-58
2022/08/07 04:40:03;;;;;;;8.18;6.82;;;;;;;19.62;78.34;93320.16;5070086;28;20162;-58
2022/08/07 04:42:31;;;;;;;11.52;8.25;;;;;;;19.65;78.44;93324.53;5071331;28;20432;-58
2022/08/07 04:45:00;;;;;;;8.43;7.10;;;;;;;19.66;78.89;93329.50;5076496;28;20107;-58
2022/08/07 04:47:55;;;;;;;9.98;6.82;;;;;;;19.75;78.34;93330.69;5091703;28;20059;-58
2022/08/07 04:50:36;;;;;;;9.25;7.13;;;;;;;19.81;78.53;93331.06;5090316;28;20024;-58
2022/08/07 04:53:18;;;;;;;8.65;6.85;;;;;;;19.96;77.93;93330.56;5107265;28;20051;-58
2022/08/07 04:55:51;;;;;;;15.63;7.82;;;;;;;20.04;77.87;93333.81;5106736;28;20036;-58
2022/08/07 04:58:45;;;;;;;11.98;7.78;;;;;;;20.00;78.35;93321.63;5089571;28;20062;-58
2022/08/07 05:01:40;;;;;;;9.43;7.95;;;;;;;20.01;78.78;93331.50;5089770;28;20048;-58
2022/08/07 05:04:16;;;;;;;10.85;7.07;;;;;;;20.08;78.82;93338.91;5091143;28;20046;-59
2022/08/07 05:07:03;;;;;;;8.15;7.20;;;;;;;20.19;79.08;93340.94;5090914;28;20036;-59
2022/08/07 05:09:29;;;;;;;8.55;7.65;;;;;;;20.25;78.96;93336.44;5091043;28;20028;-52
2022/08/07 05:11:55;;;;;;;11.07;7.90;;;;;;;20.32;78.43;93338.25;5089543;28;20035;-55
2022/08/07 05:14:35;;;;;;;10.35;7.05;;;;;;;20.33;79.01;93342.53;5091010;28;20039;-53
2022/08/07 05:17:02;;;;;;;9.20;6.95;;;;;;;20.42;79.12;93346.50;5106856;28;20020;-58
2022/08/07 05:19:36;;;;;;;9.75;7.95;;;;;;;20.49;78.91;93345.47;5106273;28;20485;-58
2022/08/07 05:22:02;;;;;;;11.27;8.50;;;;;;;20.39;78.68;93333.72;5106951;28;20035;-57
2022/08/07 05:24:29;;;;;;;11.20;7.70;;;;;;;20.60;78.44;93349.56;5107972;28;20049;-56
2022/08/07 05:26:58;;;;;;;11.55;7.53;;;;;;;20.62;78.40;93352.50;5109691;28;20122;-58
2022/08/07 05:29:24;;;;;;;9.27;8.15;;;;;;;20.65;78.91;93346.38;5109842;28;20527;-58
2022/08/07 05:31:50;;;;;;;9.98;8.05;;;;;;;20.74;79.76;93348.28;5089073;28;20040;-58
2022/08/07 05:34:16;;;;;;;10.43;7.40;;;;;;;20.81;79.02;93349.34;5090739;28;20024;-58
2022/08/07 05:36:45;;;;;;;21.00;18.75;;;;;;;20.86;79.59;93353.81;5089189;28;20528;-55
2022/08/07 05:39:11;;;;;;;13.35;11.48;;;;;;;20.90;80.92;93349.16;5088743;28;20489;-56
2022/08/07 05:41:41;;;;;;;14.27;11.00;;;;;;;21.01;80.91;93351.16;5081285;28;20028;-51
2022/08/07 05:44:08;;;;;;;11.02;9.25;;;;;;;21.09;80.41;93357.22;5072585;28;20024;-58
2022/08/07 05:46:37;;;;;;;9.15;7.53;;;;;;;21.17;79.39;93347.78;5081238;28;20031;-57
2022/08/07 05:49:05;;;;;;;16.35;10.02;;;;;;;21.32;80.42;93355.63;5067922;28;20059;-49
2022/08/07 05:51:31;;;;;;;12.50;10.77;;;;;;;21.36;80.83;93353.75;5073086;28;20021;-52
2022/08/07 05:53:56;;;;;;;10.02;9.02;;;;;;;21.47;81.52;93363.44;5082311;28;20431;-51
2022/08/07 05:56:23;;;;;;;8.55;7.65;;;;;;;21.60;77.17;93362.72;5088770;28;20152;-49
2022/08/07 05:58:48;;;;;;;8.57;7.57;;;;;;;21.69;75.07;93356.16;5088678;28;20040;-49
2022/08/07 06:01:17;;;;;;;8.93;7.28;;;;;;;21.79;71.54;93367.91;5085237;28;20040;-49
2022/08/07 06:03:50;;;;;;;8.27;7.15;;;;;;;21.79;68.90;93356.66;5088747;28;20027;-51
2022/08/07 06:06:16;;;;;;;8.93;6.75;;;;;;;22.02;68.59;93378.97;5085268;28;20511;-52
2022/08/07 06:08:42;;;;;;;8.30;5.95;;;;;;;21.96;68.17;93373.03;5089131;28;20012;-50
2022/08/07 06:11:08;;;;;;;7.13;6.43;;;;;;;22.13;67.95;93378.13;5085338;28;20016;-47
2022/08/07 06:13:37;;;;;;;7.15;6.13;;;;;;;22.19;67.13;93381.25;5086107;28;20022;-51
2022/08/07 06:16:03;;;;;;;6.45;5.85;;;;;;;22.22;66.85;93388.41;5089020;28;20073;-48
2022/08/07 06:18:31;;;;;;;8.25;6.35;;;;;;;22.23;67.16;93384.25;5087636;28;20028;-49
2022/08/07 06:21:00;;;;;;;7.78;6.53;;;;;;;22.27;66.89;93390.09;5086638;28;20106;-48
2022/08/07 06:23:26;;;;;;;9.20;6.35;;;;;;;22.36;67.40;93382.78;5088821;28;20035;-50
2022/08/07 06:25:52;;;;;;;7.82;5.70;;;;;;;22.44;67.72;93377.53;5084263;28;20031;-47
2022/08/07 06:28:17;;;;;;;8.82;5.53;;;;;;;22.50;65.33;93384.19;5089063;28;20474;-50
2022/08/07 06:30:43;;;;;;;6.57;5.97;;;;;;;22.63;65.68;93387.63;5088851;28;20441;-47
2022/08/07 06:33:08;;;;;;;7.30;6.07;;;;;;;22.70;64.51;93390.09;5088956;28;20028;-49
2022/08/07 06:35:35;;;;;;;7.10;6.40;;;;;;;22.86;65.40;93396.50;5086361;28;20020;-53
2022/08/07 06:38:02;;;;;;;7.57;5.82;;;;;;;22.69;63.44;93366.13;5088125;28;20032;-49
2022/08/07 06:40:30;;;;;;;7.35;6.20;;;;;;;22.91;62.45;93384.09;5088759;28;20019;-51
2022/08/07 06:42:56;;;;;;;7.65;6.10;;;;;;;22.89;62.71;93383.25;5087096;28;20119;-54
2022/08/07 06:45:22;;;;;;;8.55;7.40;;;;;;;22.97;62.80;93387.19;5086776;28;20674;-52
2022/08/07 06:47:48;;;;;;;7.90;6.30;;;;;;;23.03;62.00;93372.66;5087380;28;20027;-50
2022/08/07 06:50:13;;;;;;;7.22;6.00;;;;;;;23.09;62.08;93375.75;5088515;28;20424;-51
2022/08/07 06:52:42;;;;;;;9.02;6.80;;;;;;;23.17;62.38;93370.50;5090663;28;20103;-49
2022/08/07 06:55:21;;;;;;;6.50;5.90;;;;;;;23.26;62.23;93375.13;5090222;28;20046;-50
2022/08/07 06:57:47;;;;;;;;;;;;;;;23.42;59.73;93366.72;5090169;28;20047;-52
2022/08/07 07:00:13;;;;;;;7.20;6.30;;;;;;;23.44;61.19;93369.63;5090280;28;19926;-50
2022/08/07 07:02:40;;;;;;;7.53;6.28;;;;;;;23.54;61.32;93362.34;5090568;28;20039;-55
2022/08/07 07:05:06;;;;;;;7.25;6.53;;;;;;;23.57;60.09;93358.28;5092102;28;20020;-52
2022/08/07 07:07:32;;;;;;;6.53;5.90;;;;;;;23.50;60.43;93361.47;5092224;28;20018;-47
2022/08/07 07:09:57;;;;;;;7.22;6.53;;;;;;;23.56;61.11;93358.91;5092178;28;20046;-57
2022/08/07 07:12:31;;;;;;;13.82;7.28;;;;;;;23.63;60.87;93361.34;5087486;28;20115;-57
2022/08/07 07:15:07;;;;;;;13.85;6.57;;;;;;;23.80;60.04;93365.63;5085882;28;20077;-57
2022/08/07 07:18:15;;;;;;;7.65;6.05;;;;;;;23.92;59.57;93366.88;5088171;28;20031;-53
2022/08/07 07:20:46;;;;;;;8.02;7.00;;;;;;;24.01;59.81;93371.50;5080621;28;20044;-51
2022/08/07 07:23:12;;;;;;;11.13;7.35;;;;;;;24.08;60.22;93364.75;5080942;28;20024;-57
2022/08/07 07:25:39;;;;;;;9.43;6.50;;;;;;;24.27;59.60;93374.00;5076661;28;20048;-55
2022/08/07 07:28:35;;;;;;;9.48;7.53;;;;;;;24.35;56.08;93380.72;5080485;28;20024;-57
2022/08/07 07:31:05;;;;;;;8.63;7.00;;;;;;;24.54;54.69;93382.91;5098064;28;20382;-52
2022/08/07 07:33:32;;;;;;;13.10;7.63;;;;;;;24.74;55.95;93377.38;5087222;28;20032;-53
2022/08/07 07:35:59;;;;;;;8.57;6.93;;;;;;;24.98;53.83;93384.03;5071102;28;20712;-51
2022/08/07 07:38:24;;;;;;;11.05;8.38;;;;;;;25.39;54.57;93386.31;5069520;28;20052;-57
2022/08/07 07:40:54;;;;;;;12.65;8.05;;;;;;;25.96;51.54;93381.41;5070081;28;20110;-56
2022/08/07 07:43:21;;;;;;;9.40;7.05;;;;;;;27.01;49.74;93402.75;5069228;28;20084;-58
2022/08/07 07:45:46;;;;;;;8.52;7.13;;;;;;;27.63;44.26;93397.59;5069872;28;20029;-49
2022/08/07 07:48:16;;;;;;;8.82;6.82;;;;;;;27.67;44.38;93389.94;5069904;28;20664;-52
2022/08/07 07:50:42;;;;;;;7.07;6.38;;;;;;;27.66;45.30;93402.66;5069507;28;20187;-50
2022/08/07 07:53:08;;;;;;;9.57;6.78;;;;;;;28.04;44.49;93403.09;5068766;28;20021;-59
2022/08/07 07:55:34;;;;;;;7.53;6.53;;;;;;;28.31;42.76;93396.75;5068974;28;20642;-59
2022/08/07 07:58:01;;;;;;;7.80;7.05;;;;;;;28.52;42.93;93395.19;5089733;28;20040;-58
2022/08/07 08:00:27;;;;;;;7.60;6.60;;;;;;;28.74;42.16;93401.44;5090377;28;20016;-58
2022/08/07 08:02:55;;;;;;;7.80;6.80;;;;;;;28.45;41.59;93399.25;5089633;28;20523;-57
2022/08/07 08:05:21;;;;;;;;;;;;;;;28.15;43.15;93399.16;5087830;28;20028;-57
2022/08/07 08:07:47;;;;;;;8.15;6.10;;;;;;;28.36;43.16;93403.25;5079122;28;20061;-53
2022/08/07 08:10:13;;;;;;;6.57;5.95;;;;;;;28.39;43.18;93399.78;5090182;28;20103;-59
2022/08/07 08:12:39;;;;;;;12.23;6.65;;;;;;;28.69;41.27;93399.19;5089391;28;20024;-56
2022/08/07 08:15:05;;;;;;;7.05;6.35;;;;;;;29.01;41.72;93394.31;5089677;28;20020;-60
2022/08/07 08:17:31;;;;;;;7.38;6.68;;;;;;;29.20;41.65;93404.75;5089545;28;20027;-60
2022/08/07 08:20:02;;;;;;;7.35;6.63;;;;;;;29.91;40.69;93401.41;5086247;28;20081;-61
2022/08/07 08:28:00;;;;;;;8.07;6.28;;;;;;;30.90;39.77;93403.38;5075964;28;20437;-58
2022/08/07 08:30:26;;;;;;;7.72;6.47;;;;;;;30.86;36.21;93409.75;5088139;28;20674;-59
2022/08/07 08:32:53;;;;;;;7.78;6.97;;;;;;;30.74;38.23;93409.50;5102092;28;20031;-56
2022/08/07 08:35:23;;;;;;;8.20;6.90;;;;;;;30.22;38.58;93405.59;5108456;28;20027;-53
2022/08/07 08:38:20;;;;;;;7.95;7.05;;;;;;;30.25;38.59;93399.28;5109404;28;20020;-60
2022/08/07 08:41:11;;;;;;;9.23;6.68;;;;;;;30.91;38.66;93396.28;5109607;28;20039;-58
2022/08/07 08:43:48;;;;;;;6.75;6.15;;;;;;;31.43;36.82;93403.59;5109328;28;20058;-57
2022/08/07 08:46:38;;;;;;;13.20;7.20;;;;;;;31.61;35.62;93411.72;5099022;28;20032;-56
2022/08/07 08:49:22;;;;;;;8.18;6.93;;;;;;;31.61;35.78;93408.13;5088554;28;20589;-60
2022/08/07 08:52:03;;;;;;;11.25;7.55;;;;;;;32.14;34.06;93419.63;5087826;28;20398;-59
2022/08/07 08:54:37;;;;;;;6.65;5.93;;;;;;;32.69;33.69;93403.88;5088072;28;20051;-60
2022/08/07 08:57:09;;;;;;;7.20;6.50;;;;;;;33.33;33.52;93400.91;5088043;28;20025;-57
2022/08/07 08:59:44;;;;;;;9.50;6.07;;;;;;;33.28;34.29;93398.72;5087683;28;20031;-57
2022/08/07 09:02:33;;;;;;;7.13;5.57;;;;;;;32.95;34.12;93409.13;5087508;28;20031;-61
2022/08/07 09:05:23;;;;;;;7.07;5.32;;;;;;;32.10;34.97;93411.00;5078298;28;20033;-54
2022/08/07 09:08:08;;;;;;;6.63;5.88;;;;;;;31.56;35.47;93409.47;5088386;28;20188;-59
2022/08/07 09:11:01;;;;;;;7.57;6.60;;;;;;;31.35;35.79;93399.88;5087426;28;20055;-62
2022/08/07 09:13:48;;;;;;;7.65;6.10;;;;;;;31.45;37.39;93414.31;5087906;28;20600;-52
2022/08/07 09:16:33;;;;;;;6.60;5.93;;;;;;;30.55;36.09;93416.25;5089144;28;20746;-60
2022/08/07 09:19:23;;;;;;;7.68;6.28;;;;;;;30.05;37.80;93381.06;5076265;28;20032;-58
2022/08/07 09:21:57;;;;;;;7.20;6.15;;;;;;;30.30;39.75;93409.34;5081351;28;20544;-56
2022/08/07 09:24:41;;;;;;;8.38;6.30;;;;;;;30.68;38.51;93389.44;5074446;28;21028;-62
2022/08/07 09:27:56;;;;;;;6.35;5.78;;;;;;;31.21;36.39;93388.94;5086747;28;20066;-60
2022/08/07 09:30:22;;;;;;;6.55;5.40;;;;;;;31.88;35.33;93396.38;5078953;28;20100;-60
2022/08/07 09:33:50;;;;;;;10.32;5.55;;;;;;;32.34;35.29;93384.84;5085691;28;20035;-61
2022/08/07 09:36:27;;;;;;;5.20;4.70;;;;;;;32.85;32.19;93394.75;5027177;28;20086;-63
2022/08/07 09:39:15;;;;;;;5.75;5.18;;;;;;;33.06;33.24;93379.22;5088220;28;20044;-63
2022/08/07 09:42:10;;;;;;;5.28;4.70;;;;;;;33.11;31.86;93379.97;5091927;28;20039;-64
2022/08/07 09:45:13;;;;;;;5.75;5.25;;;;;;;32.31;33.52;93371.25;5084837;28;20040;-58
2022/08/07 09:48:20;;;;;;;5.43;4.93;;;;;;;32.65;32.94;93366.66;5085255;28;20421;-58
2022/08/07 09:51:19;;;;;;;5.90;4.43;;;;;;;33.35;31.29;93368.72;5050040;28;20032;-60
2022/08/07 09:53:44;;;;;;;;;;;;;;;33.74;29.89;93373.34;5062876;28;20047;-59
2022/08/07 09:56:24;;;;;;;4.83;4.40;;;;;;;33.52;31.36;93381.75;5081950;28;19916;-56
2022/08/07 09:59:13;;;;;;;6.25;3.92;;;;;;;34.38;30.21;93375.81;5087530;28;20462;-57
2022/08/07 10:02:17;;;;;;;4.72;4.28;;;;;;;34.37;28.79;93370.78;5076365;28;20028;-59
2022/08/07 10:04:57;;;;;;;4.18;3.78;;;;;;;35.03;27.45;93365.97;5076401;28;20035;-61
2022/08/07 10:07:41;;;;;;;4.75;4.35;;;;;;;34.40;28.29;93378.69;5070696;28;20096;-62
2022/08/07 10:10:45;;;;;;;9.40;4.20;;;;;;;34.17;28.03;93366.41;5077554;28;20493;-63
2022/08/07 10:13:24;;;;;;;5.40;4.32;;;;;;;34.71;30.16;93368.03;5081241;28;20064;-47
2022/08/07 10:16:29;;;;;;;5.63;3.90;;;;;;;35.47;28.65;93358.81;5107816;28;20028;-59
2022/08/07 10:19:36;;;;;;;4.57;4.18;;;;;;;36.17;27.00;93360.88;5084154;28;20035;-59
2022/08/07 10:22:19;;;;;;;4.82;4.43;;;;;;;36.85;27.06;93369.19;5084372;28;20096;-57
2022/08/07 10:25:23;;;;;;;6.00;4.00;;;;;;;36.12;26.45;93373.81;5086796;28;20119;-59
2022/08/07 10:27:56;;;;;;;5.20;4.70;;;;;;;35.50;27.83;93383.94;5086502;28;20036;-58
2022/08/07 10:30:59;;;;;;;5.97;4.40;;;;;;;35.68;26.89;93377.47;5090814;28;20028;-59
2022/08/07 10:33:51;;;;;;;4.53;4.13;;;;;;;36.18;26.39;93380.25;5075108;28;20032;-59
2022/08/07 10:36:27;;;;;;;4.22;3.88;;;;;;;35.08;26.89;93383.91;5086454;28;20528;-60
2022/08/07 10:39:20;;;;;;;6.07;4.95;;;;;;;33.91;27.91;93386.31;5092168;28;20028;-59
2022/08/07 10:41:57;;;;;;;5.07;4.57;;;;;;;33.15;29.63;93403.63;5088226;28;20124;-59
2022/08/07 10:44:32;;;;;;;5.40;4.90;;;;;;;32.41;30.61;93388.50;5075742;28;20504;-61
2022/08/07 10:47:10;;;;;;;5.68;5.00;;;;;;;32.46;30.44;93390.00;5075508;28;20035;-50
2022/08/07 10:49:46;;;;;;;5.82;4.95;;;;;;;32.79;30.13;93378.22;5093383;28;20099;-58
2022/08/07 10:52:32;;;;;;;9.38;5.18;;;;;;;33.22;31.42;93378.66;5074278;28;20028;-59
2022/08/07 10:55:29;;;;;;;7.88;5.32;;;;;;;33.54;31.01;93376.78;5091042;28;20031;-61
2022/08/07 10:58:24;;;;;;;5.97;4.78;;;;;;;34.02;29.59;93367.78;5091125;28;20047;-59
2022/08/07 11:01:00;;;;;;;5.32;4.90;;;;;;;34.21;30.56;93371.44;5070116;28;20086;-57
2022/08/07 11:03:36;;;;;;;5.22;4.72;;;;;;;34.05;29.41;93360.63;5091177;28;20077;-59
2022/08/07 11:06:07;;;;;;;7.03;5.70;;;;;;;33.38;30.96;93373.03;5091571;28;20032;-58
2022/08/07 11:08:52;;;;;;;6.10;5.07;;;;;;;33.09;30.12;93374.25;5089173;28;20152;-58
2022/08/07 11:11:17;;;;;;;11.18;5.60;;;;;;;32.35;32.19;93371.28;5093125;28;20028;-57
2022/08/07 11:13:51;;;;;;;8.15;5.57;;;;;;;31.48;34.32;93383.66;5092727;28;20112;-59
2022/08/07 11:16:26;;;;;;;5.95;5.35;;;;;;;30.85;34.76;93384.72;5092181;28;20107;-60
2022/08/07 11:19:00;;;;;;;8.82;5.68;;;;;;;30.42;36.10;93388.94;5085809;28;20038;-58
2022/08/07 11:21:50;;;;;;;6.20;5.53;;;;;;;30.40;35.89;93398.19;5113333;28;20066;-59
2022/08/07 11:24:35;;;;;;;6.38;5.78;;;;;;;29.92;39.84;93400.75;5093231;28;20035;-58
2022/08/07 11:27:16;;;;;;;7.05;5.75;;;;;;;29.34;41.01;93385.19;5092894;28;20081;-58
2022/08/07 11:29:45;;;;;;;7.25;6.07;;;;;;;29.24;42.28;93396.31;5092747;28;20057;-57
2022/08/07 11:32:19;;;;;;;7.57;5.93;;;;;;;29.25;44.09;93397.78;5092823;28;20032;-56
2022/08/07 11:35:00;;;;;;;9.32;5.88;;;;;;;29.74;43.05;93377.56;5091821;28;20032;-57
2022/08/07 11:38:02;;;;;;;7.10;5.78;;;;;;;30.41;42.39;93376.09;5092402;28;20464;-61
2022/08/07 11:41:06;;;;;;;7.10;5.38;;;;;;;31.27;37.54;93374.78;5092589;28;20496;-57
2022/08/07 11:43:45;;;;;;;6.32;5.38;;;;;;;31.71;34.13;93374.75;5091389;28;20028;-58
2022/08/07 11:46:39;;;;;;;6.30;5.50;;;;;;;31.18;36.29;93373.22;5092109;28;20077;-56
2022/08/07 11:49:31;;;;;;;7.05;5.47;;;;;;;30.71;35.53;93368.81;5091318;28;20023;-58
2022/08/07 11:52:15;;;;;;;7.28;5.63;;;;;;;30.15;36.00;93367.75;5092321;28;20031;-60
2022/08/07 11:54:52;;;;;;;8.88;5.45;;;;;;;29.51;36.69;93372.06;5092084;28;20051;-57
2022/08/07 11:57:40;;;;;;;6.32;5.55;;;;;;;29.31;37.19;93377.28;5091772;28;20596;-58
2022/08/07 12:00:18;;;;;;;7.95;5.50;;;;;;;28.97;37.42;93380.00;5091208;28;20496;-58
2022/08/07 12:03:03;;;;;;;9.30;6.53;;;;;;;28.73;39.29;93374.44;5108214;28;20416;-58